Terminal Aerodrome Forecast
Issued by NWS

Home | Current Version | Previous Version | Graphics & Text | Print | Product List | Glossary On
Versions: 1 2 3 4 5 6 7 8 9 10 11 12 13 14 15 16 17 18
000
FTUS43 KTOP 191000 AAA
TAFFOE
TAF AMD
KFOE 191006Z 1910/2006 14005KT 3SM BR BKN005
      TEMPO 1910/1914 2SM BR BKN003
     FM191700 17010KT P6SM SCT020
     FM191900 18011KT P6SM FEW025=

USA.gov is the U.S. government's official web portal to all federal, state and local government web resources and services.